Shelbyville, IN

6:02 AM EST on February 20, 2019 (GMT -0500)
SE Shelbyville IN | | Change Station
Active Advisory: Winter Weather Advisory

Elev 774 ft 39.50 °N, 85.76 °W | Updated 27 seconds ago

Light Freezing Rain
Light Freezing Rain Mist
32.5 °F
Feels Like 27 °F
N
5.8
Wind Variable Wind from ESE
Gusts 0.0 mph

Today
High -- | Low -- °F
--% Chance of Precip.
Yesterday
High -- | Low -- °F
Precip. -- in
Pressure 30.03 in
Visibility 6.0 miles
Clouds Mostly Cloudy 900 ft
Overcast 1600 ft
Windchill 27 °F
Dew Point 32 °F
Humidity 99%
Rainfall 0.32 in
Snow Depth Not available.
7:29 AM 6:25 PM
Full, 99% visible
METAR KGEZ 201053Z AUTO 07015KT 6SM -FZRA BR BKN009 OVC016 01/M01 A3001 RMK AO2 SLP169 P0013 I1000 T00111006
Pressure 30.03 in
Visibility 6.0 miles
Clouds Mostly Cloudy 900 ft
Overcast 1600 ft
Windchill 27 °F
Dew Point 32 °F
Humidity 99%
Rainfall 0.32 in
Snow Depth Not available.
7:29 AM 6:25 PM
Full, 99% visible
METAR KGEZ 201053Z AUTO 07015KT 6SM -FZRA BR BKN009 OVC016 01/M01 A3001 RMK AO2 SLP169 P0013 I1000 T00111006

Get Your Daily Forecast Email!

Thanks for signing up!

Be on the lookout for a verification email in your inbox.

You'll start receiving severe weather alerts in your inbox..

×

10-Day Weather Forecast

Almanac

Astronomy

Feb. 20, 2019 Rise Set
Actual Time
Civil Twilight
Nautical Twilight
Astronomical Twilight
Moon
Length of Visible Light
Length of Day
Tomorrow will be .
, % of the Moon is Illuminated

Today's Extremes

State Highs State Lows

Community

WunderPhotos

Category 6

Welcome to Category 6. This is the collective home for Weather Underground's featured writeups by Dr. Jeff Masters (right), Bob Henson (left), Chris Burt, and other regular contributors.

Nearby

Air Quality

  Air Quality AQ Index Pollutant
Not available.

Snow Depth

Station Depth Elevation

Earthquake Activity

City Distance Mag. Time & Date
Minimum magnitude displayed is 2.5.

Coastal Water Temperatures

Place Temperature

Stations

Nearby Weather Stations

Station Location Temp. Windchill Dew Point Humidity Wind Precip. Elev Updated Type
                   

Watches & Warnings

Winter Weather Advisory
Issued: 3:40 AM EST Feb. 20, 2019 – National Weather Service

... Winter Weather Advisory remains in effect until 10 am EST this
morning...

* what... mixed precipitation. Additional snow accumulations of
up to two inches and ice accumulations of a light glaze.

* Where... portions of central, east central, north central and
west central Indiana.

* When... until 10 am EST this morning.

* Additional details... plan on slippery Road conditions. The
hazardous conditions could impact the morning commute.

Precautionary/preparedness actions...

A Winter Weather Advisory means that periods of snow, sleet or
freezing rain will cause travel difficulties. Expect slippery
roads and limited visibilities, and use caution while driving.

The latest Road conditions for Indiana can be obtained by
calling 1 800 2 6 1 7 6 2 3